Main page
METAR-TAF:

METAR-TAF

Airports :

Oxford Airport

Oxford, England

latitude: 51-50-13N, longitude: 1-19-12W, elevation: 82 m

Current weather observation

The report was made 6 hours and 10 minutes ago, at 17:50 UTC
Wind 17 kt from the South/Southeast
Temperature 18°C
Humidity 39%
Pressure 1009 hPa
Visibility 10 km or more
no clouds below 1500 m and no cumulonimbus

METAR: EGTK 051750Z 16017KT CAVOK 18/04 Q1009

Time: 01:00 (00:00 UTC)

Forecast

The report was made 7 hours and 4 minutes ago, at 16:56 UTC
Forecast valid from 05 at 18 UTC to 05 at 22 UTC
Wind 10 kt from the South/Southeast
Visibility 10 km or more
no clouds below 1500 m and no cumulonimbus
Probability 30% :
Temporary
from 05 at 18 UTC to 05 at 22 UTC
Wind 15 kt from the South with gusts up to 25 kt

TAF: EGTK 051656Z 0518/0522 16010KT CAVOK PROB30 TEMPO 0518/0522 17015G25KT

Weather observations and forecasts of more than 4000 airports (METAR and TAF reports).

The available stations are represented by yellow and red dots on the map.

Hover mouse over dot to see the name of the station.

Then click to see weather observations and forecasts.

To change the map : click on the green buttons with a black cross to zoom in, on the green button with a dash to zoom out, or on the green arrows for adjacent maps.


METAR-TAF: